createdAt,value
2023-02-01T00:00:27.880Z,4.80
2023-02-01T00:02:54.757Z,4.80
2023-02-01T00:05:21.700Z,4.80
2023-02-01T00:07:50.240Z,4.80
2023-02-01T00:10:17.730Z,4.90
2023-02-01T00:12:44.722Z,4.90
2023-02-01T00:15:11.934Z,4.90
2023-02-01T00:17:38.813Z,5.00
2023-02-01T00:20:06.440Z,5.00
2023-02-01T00:22:33.275Z,5.00
2023-02-01T00:25:00.057Z,5.00
2023-02-01T00:27:26.925Z,5.00
2023-02-01T00:29:56.255Z,5.00
2023-02-01T00:32:23.284Z,5.00
2023-02-01T00:34:50.169Z,5.00
2023-02-01T00:37:17.054Z,5.10
2023-02-01T00:39:43.914Z,5.00
2023-02-01T00:42:11.103Z,5.10
2023-02-01T00:44:37.984Z,5.00
2023-02-01T00:47:04.838Z,5.10
2023-02-01T00:49:31.796Z,5.10
2023-02-01T00:51:58.653Z,5.10
2023-02-01T00:54:25.447Z,5.10
2023-02-01T00:56:52.322Z,5.10
2023-02-01T00:59:19.366Z,5.10
2023-02-01T01:01:46.374Z,5.20
2023-02-01T01:04:13.251Z,5.30
2023-02-01T01:06:40.300Z,5.30
2023-02-01T01:09:08.719Z,5.30
2023-02-01T01:11:40.679Z,5.30
2023-02-01T01:14:08.959Z,5.40
2023-02-01T01:16:35.843Z,5.40
2023-02-01T01:19:03.428Z,5.40
2023-02-01T01:21:31.153Z,5.40
2023-02-01T01:23:58.179Z,5.40
2023-02-01T01:26:28.074Z,5.40
2023-02-01T01:28:57.218Z,5.40
2023-02-01T01:31:24.762Z,5.50
2023-02-01T01:33:57.833Z,5.40
2023-02-01T01:36:25.302Z,5.50
2023-02-01T01:38:52.594Z,5.50
2023-02-01T01:41:22.305Z,5.50
2023-02-01T01:44:01.091Z,5.60
2023-02-01T01:46:46.280Z,5.50
2023-02-01T01:49:18.689Z,5.60
2023-02-01T01:51:52.944Z,5.60
2023-02-01T01:54:28.033Z,5.50
2023-02-01T01:56:59.589Z,5.50
2023-02-01T01:59:27.252Z,5.60
2023-02-01T02:01:54.400Z,5.60
2023-02-01T02:04:21.474Z,5.60
2023-02-01T02:07:09.136Z,5.60
2023-02-01T02:09:36.305Z,5.60
2023-02-01T02:12:03.292Z,5.60
2023-02-01T02:14:30.781Z,5.70
2023-02-01T02:17:03.455Z,5.70
2023-02-01T02:19:51.971Z,5.70
2023-02-01T02:22:43.675Z,5.60
2023-02-01T02:25:32.043Z,5.60
2023-02-01T02:28:17.186Z,5.50
2023-02-01T02:31:05.703Z,5.50
2023-02-01T02:33:56.905Z,5.40
2023-02-01T02:36:39.783Z,5.40
2023-02-01T02:40:00.043Z,5.30
2023-02-01T02:42:58.996Z,5.20
2023-02-01T02:45:49.746Z,5.10
2023-02-01T02:48:23.408Z,5.10
2023-02-01T02:51:18.565Z,5.00
2023-02-01T02:54:29.895Z,5.00
2023-02-01T02:57:17.616Z,4.90
2023-02-01T03:00:05.598Z,4.90
2023-02-01T03:02:52.740Z,4.80
2023-02-01T03:05:19.597Z,4.80
2023-02-01T03:08:03.343Z,4.80
2023-02-01T03:10:48.937Z,4.80
2023-02-01T03:13:26.455Z,4.80
2023-02-01T03:16:19.716Z,4.80
2023-02-01T03:19:04.796Z,4.80
2023-02-01T03:21:36.959Z,4.80
2023-02-01T03:24:11.127Z,4.80
2023-02-01T03:26:42.569Z,4.70
2023-02-01T03:29:24.339Z,4.70
2023-02-01T03:31:51.733Z,4.70
2023-02-01T03:34:18.793Z,4.70
2023-02-01T03:36:54.912Z,4.70
2023-02-01T03:39:32.231Z,4.70
2023-02-01T03:42:04.049Z,4.80
2023-02-01T03:44:38.105Z,4.80
2023-02-01T03:47:10.135Z,4.80
2023-02-01T03:50:02.513Z,4.80
2023-02-01T03:52:35.825Z,4.90
2023-02-01T03:55:03.443Z,4.90
2023-02-01T03:57:35.422Z,5.00
2023-02-01T04:00:17.294Z,4.90
2023-02-01T04:02:44.591Z,5.00
2023-02-01T04:05:11.508Z,5.00
2023-02-01T04:07:38.383Z,5.00
2023-02-01T04:10:06.142Z,5.00
2023-02-01T04:12:32.952Z,5.00
2023-02-01T04:14:59.740Z,5.00
2023-02-01T04:17:26.571Z,5.00
2023-02-01T04:19:55.455Z,5.00
2023-02-01T04:22:22.667Z,5.00
2023-02-01T04:24:49.680Z,5.00
2023-02-01T04:27:16.572Z,5.00
2023-02-01T04:29:43.432Z,5.00
2023-02-01T04:32:10.240Z,5.00
2023-02-01T04:34:37.205Z,5.00
2023-02-01T04:37:04.408Z,5.00
2023-02-01T04:39:31.197Z,5.00
2023-02-01T04:41:58.029Z,4.90
2023-02-01T04:44:25.212Z,4.90
2023-02-01T04:46:52.184Z,4.90
2023-02-01T04:49:19.140Z,4.90
2023-02-01T04:51:45.964Z,4.90
2023-02-01T04:54:12.813Z,5.00
2023-02-01T04:56:39.680Z,5.00
2023-02-01T04:59:07.246Z,4.90
2023-02-01T05:01:34.123Z,5.00
2023-02-01T05:04:00.977Z,5.00
2023-02-01T05:06:27.797Z,5.00
2023-02-01T05:08:54.658Z,5.00
2023-02-01T05:11:40.461Z,5.00
2023-02-01T05:14:07.318Z,5.00
2023-02-01T05:16:34.108Z,5.00
2023-02-01T05:19:00.941Z,5.00
2023-02-01T05:21:27.890Z,5.10
2023-02-01T05:24:13.164Z,5.10
2023-02-01T05:26:44.089Z,5.10
2023-02-01T05:29:13.429Z,5.10
2023-02-01T05:31:40.639Z,5.10
2023-02-01T05:34:07.821Z,5.20
2023-02-01T05:36:34.747Z,5.20
2023-02-01T05:39:01.913Z,5.30
2023-02-01T05:41:28.733Z,5.20
2023-02-01T05:43:55.549Z,5.30
2023-02-01T05:46:22.591Z,5.40
2023-02-01T05:48:49.685Z,5.40
2023-02-01T05:51:16.537Z,5.40
2023-02-01T05:53:43.413Z,5.40
2023-02-01T05:56:10.309Z,5.40
2023-02-01T05:58:37.146Z,5.40
2023-02-01T06:01:04.916Z,5.40
2023-02-01T06:03:31.931Z,5.40
2023-02-01T06:05:58.860Z,5.40
2023-02-01T06:08:26.765Z,5.40
2023-02-01T06:11:05.275Z,5.40
2023-02-01T06:13:34.535Z,5.40
2023-02-01T06:16:04.229Z,5.40
2023-02-01T06:18:31.764Z,5.40
2023-02-01T06:21:02.944Z,5.50
2023-02-01T06:23:31.399Z,5.50
2023-02-01T06:26:06.849Z,5.50
2023-02-01T06:28:34.573Z,5.50
2023-02-01T06:31:08.464Z,5.60
2023-02-01T06:33:36.171Z,5.50
2023-02-01T06:36:05.557Z,5.60
2023-02-01T06:38:35.676Z,5.60
2023-02-01T06:41:03.443Z,5.60
2023-02-01T06:43:30.908Z,5.60
2023-02-01T06:46:05.796Z,5.60
2023-02-01T06:48:33.305Z,5.60
2023-02-01T06:51:00.673Z,5.60
2023-02-01T06:53:27.849Z,5.60
2023-02-01T06:56:00.346Z,5.70
2023-02-01T06:58:34.998Z,5.70
2023-02-01T07:01:09.659Z,5.70
2023-02-01T07:03:37.798Z,5.70
2023-02-01T07:06:05.860Z,5.70
2023-02-01T07:08:34.531Z,5.70
2023-02-01T07:11:10.088Z,5.70
2023-02-01T07:13:37.172Z,5.70
2023-02-01T07:16:06.589Z,5.70
2023-02-01T07:18:34.061Z,5.80
2023-02-01T07:21:01.722Z,5.80
2023-02-01T07:23:28.777Z,5.80
2023-02-01T07:26:00.661Z,5.80
2023-02-01T07:28:30.439Z,5.80
2023-02-01T07:31:04.155Z,5.80
2023-02-01T07:33:31.005Z,5.80
2023-02-01T07:35:57.847Z,5.80
2023-02-01T07:38:24.818Z,5.80
2023-02-01T07:40:51.728Z,5.90
2023-02-01T07:43:18.581Z,5.80
2023-02-01T07:45:53.111Z,5.80
2023-02-01T07:48:20.878Z,5.80
2023-02-01T07:50:49.221Z,5.90
2023-02-01T07:53:16.019Z,5.90
2023-02-01T07:55:42.877Z,5.90
2023-02-01T07:58:09.843Z,5.90
2023-02-01T08:00:55.230Z,5.90
2023-02-01T08:03:22.326Z,5.90
2023-02-01T08:05:49.147Z,5.90
2023-02-01T08:08:15.953Z,5.90
2023-02-01T08:10:42.840Z,6.00
2023-02-01T08:13:10.797Z,6.00
2023-02-01T08:15:37.641Z,6.00
2023-02-01T08:18:05.283Z,6.10
2023-02-01T08:20:32.512Z,6.10
2023-02-01T08:22:59.326Z,6.10
2023-02-01T08:25:26.247Z,6.10
2023-02-01T08:27:54.463Z,6.10
2023-02-01T08:30:21.979Z,6.20
2023-02-01T08:32:49.115Z,6.20
2023-02-01T08:35:16.019Z,6.10
2023-02-01T08:37:42.849Z,6.20
2023-02-01T08:40:10.758Z,6.20
2023-02-01T08:42:53.094Z,6.20
2023-02-01T08:45:24.885Z,6.30
2023-02-01T08:47:55.374Z,6.30
2023-02-01T08:50:23.612Z,6.30
2023-02-01T08:52:50.640Z,6.30
2023-02-01T08:55:17.644Z,6.30
2023-02-01T08:57:44.659Z,6.40
2023-02-01T09:00:17.281Z,6.30
2023-02-01T09:02:44.364Z,6.30
2023-02-01T09:05:11.978Z,6.30
2023-02-01T09:07:39.788Z,6.30
2023-02-01T09:10:07.009Z,6.30
2023-02-01T09:12:35.130Z,6.30
2023-02-01T09:15:02.164Z,6.40
2023-02-01T09:20:01.336Z,6.50
2023-02-01T09:22:28.286Z,6.50
2023-02-01T09:24:55.406Z,6.50
2023-02-01T09:27:23.097Z,6.50
2023-02-01T09:29:53.433Z,6.50
2023-02-01T09:32:22.299Z,6.60
2023-02-01T09:34:50.552Z,6.60
2023-02-01T09:37:17.535Z,6.50
2023-02-01T09:39:44.809Z,6.50
2023-02-01T09:42:22.747Z,6.50
2023-02-01T09:45:14.122Z,6.50
2023-02-01T09:47:50.177Z,6.60
2023-02-01T09:50:22.391Z,6.50
2023-02-01T09:52:58.741Z,6.50
2023-02-01T09:55:45.882Z,6.50
2023-02-01T09:58:43.396Z,6.50
2023-02-01T10:01:21.093Z,6.50
2023-02-01T10:03:48.493Z,6.50
2023-02-01T10:06:29.463Z,6.50
2023-02-01T10:09:18.779Z,6.50
2023-02-01T10:12:01.390Z,6.40
2023-02-01T10:14:52.559Z,6.40
2023-02-01T10:17:47.334Z,6.30
2023-02-01T10:20:45.888Z,6.30
2023-02-01T10:23:34.999Z,6.10
2023-02-01T10:26:11.786Z,6.00
2023-02-01T10:28:40.031Z,5.90
2023-02-01T10:31:10.102Z,5.90
2023-02-01T10:33:46.985Z,5.80
2023-02-01T10:36:22.481Z,5.70
2023-02-01T10:38:49.870Z,5.70
2023-02-01T10:41:22.875Z,5.70
2023-02-01T10:43:55.370Z,5.70
2023-02-01T10:46:24.640Z,5.70
2023-02-01T10:48:58.174Z,5.60
2023-02-01T10:51:36.881Z,5.70
2023-02-01T10:54:17.236Z,5.60
2023-02-01T10:56:48.193Z,5.60
2023-02-01T10:59:21.819Z,5.60
2023-02-01T11:01:50.723Z,5.60
2023-02-01T11:04:21.012Z,5.60
2023-02-01T11:06:54.213Z,5.60
2023-02-01T11:09:23.663Z,5.60
2023-02-01T11:11:50.452Z,5.60
2023-02-01T11:14:27.422Z,5.60
2023-02-01T11:17:02.349Z,5.60
2023-02-01T11:19:30.050Z,5.60
2023-02-01T11:22:00.543Z,5.60
2023-02-01T11:24:29.890Z,5.60
2023-02-01T11:26:58.427Z,5.70
2023-02-01T11:29:30.831Z,5.70
2023-02-01T11:31:59.602Z,5.80
2023-02-01T11:34:34.217Z,5.80
2023-02-01T11:37:04.370Z,5.90
2023-02-01T11:39:37.016Z,5.90
2023-02-01T11:42:13.571Z,6.00
2023-02-01T11:44:43.430Z,6.00
2023-02-01T11:47:23.518Z,6.10
2023-02-01T11:50:01.908Z,6.10
2023-02-01T11:52:57.004Z,6.10
2023-02-01T11:55:42.602Z,6.10
2023-02-01T11:58:29.391Z,6.20
2023-02-01T12:01:00.365Z,6.10
2023-02-01T12:03:51.816Z,6.10
2023-02-01T12:06:24.399Z,6.00
2023-02-01T12:09:39.229Z,6.00
2023-02-01T12:12:15.012Z,6.00
2023-02-01T12:15:08.122Z,6.00
2023-02-01T12:17:52.235Z,6.00
2023-02-01T12:20:27.896Z,6.00
2023-02-01T12:23:19.482Z,6.20
2023-02-01T12:25:58.543Z,6.40
2023-02-01T12:28:56.354Z,6.40
2023-02-01T12:31:48.252Z,6.30
2023-02-01T12:34:51.883Z,6.30
2023-02-01T12:37:56.719Z,6.30
2023-02-01T12:40:38.921Z,6.30
2023-02-01T12:43:48.570Z,6.30
2023-02-01T12:46:22.477Z,6.30
2023-02-01T12:49:21.176Z,6.40
2023-02-01T12:51:51.323Z,6.50
2023-02-01T12:54:23.237Z,6.60
2023-02-01T12:56:56.696Z,6.70
2023-02-01T12:59:35.501Z,6.80
2023-02-01T13:02:23.808Z,6.90
2023-02-01T13:05:16.750Z,7.00
2023-02-01T13:08:17.176Z,7.10
2023-02-01T13:10:49.136Z,7.30
2023-02-01T13:13:40.164Z,7.30
2023-02-01T13:16:31.478Z,7.30
2023-02-01T13:19:07.259Z,7.50
2023-02-01T13:21:39.990Z,7.60
2023-02-01T13:24:36.701Z,7.80
2023-02-01T13:27:03.979Z,7.90
2023-02-01T13:29:32.394Z,7.90
2023-02-01T13:32:18.538Z,7.90
2023-02-01T13:35:00.936Z,7.90
2023-02-01T13:38:18.816Z,7.90
2023-02-01T13:41:10.382Z,7.90
2023-02-01T13:43:40.132Z,7.80
2023-02-01T13:46:10.948Z,7.60
2023-02-01T13:48:58.822Z,7.50
2023-02-01T13:51:43.224Z,7.40
2023-02-01T13:54:33.524Z,7.30
2023-02-01T13:57:02.525Z,7.20
2023-02-01T13:59:41.413Z,7.20
2023-02-01T14:02:39.424Z,7.20
2023-02-01T14:05:29.918Z,7.20
2023-02-01T14:08:27.308Z,7.20
2023-02-01T14:11:00.047Z,7.10
2023-02-01T14:13:38.476Z,7.00
2023-02-01T14:16:05.536Z,6.90
2023-02-01T14:18:38.807Z,7.00
2023-02-01T14:21:34.487Z,7.00
2023-02-01T14:24:10.165Z,7.10
2023-02-01T14:26:46.986Z,7.20
2023-02-01T14:29:20.790Z,7.20
2023-02-01T14:32:13.437Z,7.30
2023-02-01T14:34:49.660Z,7.40
2023-02-01T14:37:19.654Z,7.50
2023-02-01T14:39:46.572Z,7.40
2023-02-01T14:42:47.618Z,7.40
2023-02-01T14:45:24.282Z,7.40
2023-02-01T14:47:55.524Z,7.30
2023-02-01T14:50:33.281Z,7.20
2023-02-01T14:53:17.921Z,7.10
2023-02-01T14:55:50.255Z,7.10
2023-02-01T14:58:43.474Z,7.00
2023-02-01T15:01:21.351Z,6.90
2023-02-01T15:04:12.688Z,6.90
2023-02-01T15:06:45.325Z,6.90
2023-02-01T15:09:21.472Z,6.80
2023-02-01T15:12:21.247Z,6.80
2023-02-01T15:15:03.763Z,6.80
2023-02-01T15:17:35.428Z,6.70
2023-02-01T15:20:12.390Z,6.70
2023-02-01T15:22:40.370Z,6.60
2023-02-01T15:25:19.071Z,6.60
2023-02-01T15:27:45.933Z,6.50
2023-02-01T15:30:28.767Z,6.50
2023-02-01T15:33:15.562Z,6.60
2023-02-01T15:35:48.671Z,6.60
2023-02-01T15:38:24.624Z,6.50
2023-02-01T15:41:11.015Z,6.60
2023-02-01T15:43:54.594Z,6.50
2023-02-01T15:46:56.711Z,6.50
2023-02-01T15:49:28.218Z,6.50
2023-02-01T15:51:56.589Z,6.40
2023-02-01T15:54:32.187Z,6.40
2023-02-01T15:57:02.268Z,6.30
2023-02-01T15:59:45.056Z,6.30
2023-02-01T16:02:40.068Z,6.30
2023-02-01T16:05:26.093Z,6.30
2023-02-01T16:08:16.043Z,6.30
2023-02-01T16:10:46.721Z,6.30
2023-02-01T16:13:15.347Z,6.30
2023-02-01T16:15:42.699Z,6.30
2023-02-01T16:18:10.746Z,6.30
2023-02-01T16:20:40.453Z,6.30
2023-02-01T16:23:08.947Z,6.30
2023-02-01T16:25:36.871Z,6.30
2023-02-01T16:28:04.077Z,6.30
2023-02-01T16:30:30.970Z,6.30
2023-02-01T16:32:59.549Z,6.30
2023-02-01T16:35:32.426Z,6.30
2023-02-01T16:37:59.792Z,6.20
2023-02-01T16:40:26.647Z,6.20
2023-02-01T16:42:56.228Z,6.30
2023-02-01T16:45:23.937Z,6.30
2023-02-01T16:47:55.546Z,6.30
2023-02-01T16:50:24.579Z,6.30
2023-02-01T16:52:52.676Z,6.30
2023-02-01T16:55:22.706Z,6.40
2023-02-01T16:57:50.253Z,6.30
2023-02-01T17:00:24.601Z,6.30
2023-02-01T17:02:53.969Z,6.30
2023-02-01T17:05:20.968Z,6.30
2023-02-01T17:07:47.884Z,6.30
2023-02-01T17:10:33.282Z,6.30
2023-02-01T17:13:00.921Z,6.20
2023-02-01T17:15:32.300Z,6.20
2023-02-01T17:18:02.671Z,6.20
2023-02-01T17:20:33.074Z,6.20
2023-02-01T17:23:00.549Z,6.10
2023-02-01T17:25:30.304Z,6.00
2023-02-01T17:27:57.185Z,6.00
2023-02-01T17:30:24.734Z,5.90
2023-02-01T17:32:51.615Z,5.90
2023-02-01T17:35:23.583Z,5.90
2023-02-01T17:37:52.175Z,5.80
2023-02-01T17:40:19.677Z,5.80
2023-02-01T17:42:47.249Z,5.80
2023-02-01T17:45:42.013Z,5.70
2023-02-01T17:48:08.954Z,5.70
2023-02-01T17:50:37.898Z,5.70
2023-02-01T17:53:09.493Z,5.70
2023-02-01T17:55:38.619Z,5.70
2023-02-01T17:58:05.711Z,5.70
2023-02-01T18:00:32.763Z,5.70
2023-02-01T18:03:00.696Z,5.60
2023-02-01T18:05:36.931Z,5.60
2023-02-01T18:08:03.838Z,5.60
2023-02-01T18:10:30.820Z,5.60
2023-02-01T18:12:58.210Z,5.60
2023-02-01T18:15:26.563Z,5.50
2023-02-01T18:17:53.630Z,5.60
2023-02-01T18:20:23.852Z,5.50
2023-02-01T18:22:51.100Z,5.50
2023-02-01T18:25:22.994Z,5.50
2023-02-01T18:27:54.703Z,5.40
2023-02-01T18:30:24.035Z,5.40
2023-02-01T18:32:51.278Z,5.40
2023-02-01T18:35:22.526Z,5.40
2023-02-01T18:37:51.019Z,5.30
2023-02-01T18:40:21.038Z,5.30
2023-02-01T18:42:48.163Z,5.20
2023-02-01T18:45:23.290Z,5.20
2023-02-01T18:47:51.276Z,5.10
2023-02-01T18:50:18.759Z,5.10
2023-02-01T18:52:46.169Z,5.00
2023-02-01T18:55:13.300Z,5.00
2023-02-01T18:57:41.005Z,5.00
2023-02-01T19:00:10.390Z,5.00
2023-02-01T19:02:39.142Z,5.00
2023-02-01T19:05:08.192Z,4.90
2023-02-01T19:07:39.343Z,5.00
2023-02-01T19:10:11.095Z,5.00
2023-02-01T19:12:39.095Z,5.00
2023-02-01T19:15:08.649Z,4.90
2023-02-01T19:17:36.429Z,4.90
2023-02-01T19:20:04.822Z,4.90
2023-02-01T19:22:32.045Z,5.00
2023-02-01T19:24:58.988Z,5.00
2023-02-01T19:27:25.831Z,5.00
2023-02-01T19:29:52.693Z,5.00
2023-02-01T19:32:19.699Z,4.90
2023-02-01T19:34:46.906Z,4.90
2023-02-01T19:37:13.805Z,4.90
2023-02-01T19:39:41.954Z,4.90
2023-02-01T19:42:09.210Z,4.90
2023-02-01T19:44:36.284Z,4.90
2023-02-01T19:47:03.558Z,4.80
2023-02-01T19:49:30.415Z,4.80
2023-02-01T19:51:57.596Z,4.80
2023-02-01T19:54:24.510Z,4.80
2023-02-01T19:56:51.364Z,4.80
2023-02-01T19:59:19.184Z,4.70
2023-02-01T20:01:46.772Z,4.70
2023-02-01T20:04:16.262Z,4.80
2023-02-01T20:06:50.166Z,4.70
2023-02-01T20:09:18.761Z,4.80
2023-02-01T20:11:46.247Z,4.80
2023-02-01T20:14:13.541Z,4.70
2023-02-01T20:16:41.727Z,4.70
2023-02-01T20:19:10.227Z,4.70
2023-02-01T20:21:38.992Z,4.70
2023-02-01T20:24:06.459Z,4.70
2023-02-01T20:26:34.686Z,4.70
2023-02-01T20:29:02.447Z,4.70
2023-02-01T20:31:30.163Z,4.70
2023-02-01T20:33:58.670Z,4.70
2023-02-01T20:36:27.136Z,4.70
2023-02-01T20:38:54.816Z,4.60
2023-02-01T20:41:22.420Z,4.60
2023-02-01T20:43:49.654Z,4.60
2023-02-01T20:46:16.949Z,4.60
2023-02-01T20:48:45.674Z,4.60
2023-02-01T20:51:13.926Z,4.50
2023-02-01T20:53:41.676Z,4.50
2023-02-01T20:56:10.688Z,4.50
2023-02-01T20:58:37.844Z,4.50
2023-02-01T21:01:05.380Z,4.50
2023-02-01T21:03:32.648Z,4.50
2023-02-01T21:06:00.486Z,4.40
2023-02-01T21:08:29.080Z,4.50
2023-02-01T21:10:57.567Z,4.40
2023-02-01T21:13:26.181Z,4.40
2023-02-01T21:15:53.689Z,4.40
2023-02-01T21:18:20.693Z,4.40
2023-02-01T21:20:47.923Z,4.40
2023-02-01T21:23:16.092Z,4.40
2023-02-01T21:25:44.287Z,4.40
2023-02-01T21:28:11.959Z,4.30
2023-02-01T21:30:39.302Z,4.30
2023-02-01T21:33:07.946Z,4.40
2023-02-01T21:35:35.181Z,4.40
2023-02-01T21:38:02.081Z,4.40
2023-02-01T21:40:28.907Z,4.40
2023-02-01T21:42:55.756Z,4.40
2023-02-01T21:45:23.112Z,4.40
2023-02-01T21:47:50.252Z,4.40
2023-02-01T21:50:20.080Z,4.30
2023-02-01T21:52:47.004Z,4.30
2023-02-01T21:55:14.142Z,4.30
2023-02-01T21:57:41.238Z,4.30
2023-02-01T22:00:09.014Z,4.30
2023-02-01T22:02:36.448Z,4.20
2023-02-01T22:05:06.686Z,4.20
2023-02-01T22:07:35.280Z,4.20
2023-02-01T22:10:02.879Z,4.20
2023-02-01T22:12:29.710Z,4.10
2023-02-01T22:14:58.604Z,4.20
2023-02-01T22:17:25.607Z,4.10
2023-02-01T22:19:52.403Z,4.10
2023-02-01T22:22:19.352Z,4.10
2023-02-01T22:24:46.188Z,4.10
2023-02-01T22:27:14.261Z,4.00
2023-02-01T22:29:42.071Z,4.00
2023-02-01T22:32:09.585Z,4.00
2023-02-01T22:34:36.409Z,4.00
2023-02-01T22:37:03.273Z,4.00
2023-02-01T22:39:30.359Z,4.00
2023-02-01T22:41:57.300Z,4.00
2023-02-01T22:44:24.200Z,3.90
2023-02-01T22:46:51.104Z,3.90
2023-02-01T22:49:18.023Z,3.80
2023-02-01T22:51:45.084Z,3.80
2023-02-01T22:54:21.433Z,3.80
2023-02-01T22:56:48.579Z,3.70
2023-02-01T22:59:15.686Z,3.70
2023-02-01T23:01:42.890Z,3.60
2023-02-01T23:04:15.286Z,3.60
2023-02-01T23:06:42.160Z,3.60
2023-02-01T23:09:16.333Z,3.60
2023-02-01T23:11:43.992Z,3.60
2023-02-01T23:14:12.132Z,3.60
2023-02-01T23:16:40.782Z,3.50
2023-02-01T23:19:08.314Z,3.50
2023-02-01T23:21:35.522Z,3.50
2023-02-01T23:24:04.795Z,3.50
2023-02-01T23:26:32.337Z,3.40
2023-02-01T23:29:00.540Z,3.40
2023-02-01T23:31:32.673Z,3.40
2023-02-01T23:34:01.295Z,3.40
2023-02-01T23:36:28.849Z,3.40
2023-02-01T23:38:56.129Z,3.40
2023-02-01T23:41:23.921Z,3.40
2023-02-01T23:43:59.732Z,3.30
2023-02-01T23:46:32.019Z,3.40
2023-02-01T23:49:00.565Z,3.40
2023-02-01T23:51:28.279Z,3.30
2023-02-01T23:53:56.041Z,3.40
2023-02-01T23:56:34.704Z,3.30
2023-02-01T23:59:07.405Z,3.40
